sensor_id;sensor_type;location;lat;lon;timestamp;pressure;altitude;pressure_sealevel;temperature;humidity
74045;BME280;62389;51.412;5.436;2022-12-20T00:00:53;101310.19;;;9.33;79.50
74045;BME280;62389;51.412;5.436;2022-12-20T00:03:18;101314.41;;;9.38;78.66
74045;BME280;62389;51.412;5.436;2022-12-20T00:05:45;101308.09;;;9.45;79.03
74045;BME280;62389;51.412;5.436;2022-12-20T00:08:11;101305.22;;;9.52;78.67
74045;BME280;62389;51.412;5.436;2022-12-20T00:10:37;101300.91;;;9.51;78.64
74045;BME280;62389;51.412;5.436;2022-12-20T00:13:03;101303.34;;;9.57;77.56
74045;BME280;62389;51.412;5.436;2022-12-20T00:15:28;101302.41;;;9.58;78.35
74045;BME280;62389;51.412;5.436;2022-12-20T00:17:55;101305.84;;;9.60;77.91
74045;BME280;62389;51.412;5.436;2022-12-20T00:20:21;101294.44;;;9.63;77.69
74045;BME280;62389;51.412;5.436;2022-12-20T00:22:46;101295.25;;;9.65;78.12
74045;BME280;62389;51.412;5.436;2022-12-20T00:25:11;101283.91;;;9.66;78.20
74045;BME280;62389;51.412;5.436;2022-12-20T00:27:37;101292.69;;;9.64;77.85
74045;BME280;62389;51.412;5.436;2022-12-20T00:30:03;101291.84;;;9.63;78.42
74045;BME280;62389;51.412;5.436;2022-12-20T00:32:29;101294.28;;;9.68;77.70
74045;BME280;62389;51.412;5.436;2022-12-20T00:34:54;101295.91;;;9.72;78.02
74045;BME280;62389;51.412;5.436;2022-12-20T00:37:19;101287.00;;;9.77;77.59
74045;BME280;62389;51.412;5.436;2022-12-20T00:39:45;101280.00;;;9.79;78.22
74045;BME280;62389;51.412;5.436;2022-12-20T00:42:10;101279.09;;;9.80;78.38
74045;BME280;62389;51.412;5.436;2022-12-20T00:44:35;101269.56;;;9.79;77.67
74045;BME280;62389;51.412;5.436;2022-12-20T00:47:01;101278.09;;;9.84;77.00
74045;BME280;62389;51.412;5.436;2022-12-20T00:49:26;101265.81;;;9.86;77.07
74045;BME280;62389;51.412;5.436;2022-12-20T00:51:52;101264.81;;;9.91;77.08
74045;BME280;62389;51.412;5.436;2022-12-20T00:54:17;101273.34;;;9.96;77.44
74045;BME280;62389;51.412;5.436;2022-12-20T00:56:42;101269.81;;;9.97;77.06
74045;BME280;62389;51.412;5.436;2022-12-20T00:59:08;101278.44;;;9.99;77.52
74045;BME280;62389;51.412;5.436;2022-12-20T01:01:33;101273.13;;;10.02;77.11
74045;BME280;62389;51.412;5.436;2022-12-20T01:03:59;101267.91;;;10.02;77.40
74045;BME280;62389;51.412;5.436;2022-12-20T01:06:25;101275.84;;;9.99;77.15
74045;BME280;62389;51.412;5.436;2022-12-20T01:08:52;101278.63;;;9.94;78.33
74045;BME280;62389;51.412;5.436;2022-12-20T01:11:29;101288.41;;;9.88;79.13
74045;BME280;62389;51.412;5.436;2022-12-20T01:13:58;101301.78;;;9.78;80.74
74045;BME280;62389;51.412;5.436;2022-12-20T01:16:39;101295.91;;;9.72;80.58
74045;BME280;62389;51.412;5.436;2022-12-20T01:19:05;101289.91;;;9.68;81.32
74045;BME280;62389;51.412;5.436;2022-12-20T01:21:31;101284.06;;;9.62;82.43
74045;BME280;62389;51.412;5.436;2022-12-20T01:23:57;101281.09;;;9.46;83.66
74045;BME280;62389;51.412;5.436;2022-12-20T01:26:25;101295.47;;;9.31;84.86
74045;BME280;62389;51.412;5.436;2022-12-20T01:28:54;101276.72;;;9.18;85.96
74045;BME280;62389;51.412;5.436;2022-12-20T01:31:19;101297.06;;;9.07;86.67
74045;BME280;62389;51.412;5.436;2022-12-20T01:33:48;101298.97;;;9.02;87.51
74045;BME280;62389;51.412;5.436;2022-12-20T01:36:22;101288.72;;;8.96;88.52
74045;BME280;62389;51.412;5.436;2022-12-20T01:38:49;101279.31;;;8.90;88.77
74045;BME280;62389;51.412;5.436;2022-12-20T01:41:20;101269.94;;;8.85;88.21
74045;BME280;62389;51.412;5.436;2022-12-20T01:44:00;101271.81;;;8.79;90.08
74045;BME280;62389;51.412;5.436;2022-12-20T01:46:31;101263.16;;;8.77;90.02
74045;BME280;62389;51.412;5.436;2022-12-20T01:49:11;101248.63;;;8.70;89.75
74045;BME280;62389;51.412;5.436;2022-12-20T01:51:43;101242.63;;;8.67;90.14
74045;BME280;62389;51.412;5.436;2022-12-20T01:54:16;101240.00;;;8.67;90.30
74045;BME280;62389;51.412;5.436;2022-12-20T01:56:47;101240.97;;;8.64;90.55
74045;BME280;62389;51.412;5.436;2022-12-20T01:59:14;101238.38;;;8.63;90.64
74045;BME280;62389;51.412;5.436;2022-12-20T02:01:41;101234.94;;;8.62;91.05
74045;BME280;62389;51.412;5.436;2022-12-20T02:04:07;101235.00;;;8.61;91.13
74045;BME280;62389;51.412;5.436;2022-12-20T02:06:33;101244.56;;;8.60;91.27
74045;BME280;62389;51.412;5.436;2022-12-20T02:08:59;101249.84;;;8.59;91.73
74045;BME280;62389;51.412;5.436;2022-12-20T02:17:07;101232.50;;;8.56;91.38
74045;BME280;62389;51.412;5.436;2022-12-20T02:24:58;101220.38;;;8.55;90.79
74045;BME280;62389;51.412;5.436;2022-12-20T02:27:40;101206.44;;;8.56;91.69
74045;BME280;62389;51.412;5.436;2022-12-20T02:30:11;101210.75;;;8.57;91.32
74045;BME280;62389;51.412;5.436;2022-12-20T02:32:43;101203.78;;;8.57;90.43
74045;BME280;62389;51.412;5.436;2022-12-20T02:35:13;101213.31;;;8.59;90.90
74045;BME280;62389;51.412;5.436;2022-12-20T02:37:51;101200.28;;;8.59;91.20
74045;BME280;62389;51.412;5.436;2022-12-20T02:40:31;101195.06;;;8.59;90.10
74045;BME280;62389;51.412;5.436;2022-12-20T02:43:03;101194.13;;;8.61;89.76
74045;BME280;62389;51.412;5.436;2022-12-20T02:45:51;101198.28;;;8.67;89.49
74045;BME280;62389;51.412;5.436;2022-12-20T02:48:17;101187.72;;;8.71;89.82
74045;BME280;62389;51.412;5.436;2022-12-20T02:50:46;101187.50;;;8.79;88.59
74045;BME280;62389;51.412;5.436;2022-12-20T02:53:14;101186.34;;;8.88;89.02
74045;BME280;62389;51.412;5.436;2022-12-20T02:58:46;101191.22;;;8.98;87.87
74045;BME280;62389;51.412;5.436;2022-12-20T03:01:32;101189.19;;;9.08;87.24
74045;BME280;62389;51.412;5.436;2022-12-20T03:03:59;101184.72;;;9.12;87.15
74045;BME280;62389;51.412;5.436;2022-12-20T03:06:25;101196.00;;;9.12;86.88
74045;BME280;62389;51.412;5.436;2022-12-20T03:08:51;101191.50;;;9.17;86.51
74045;BME280;62389;51.412;5.436;2022-12-20T03:11:16;101192.19;;;9.22;86.11
74045;BME280;62389;51.412;5.436;2022-12-20T03:13:42;101194.72;;;9.25;86.50
74045;BME280;62389;51.412;5.436;2022-12-20T03:16:07;101189.44;;;9.27;86.18
74045;BME280;62389;51.412;5.436;2022-12-20T03:18:34;101192.00;;;9.28;86.12
74045;BME280;62389;51.412;5.436;2022-12-20T03:21:00;101185.84;;;9.31;85.96
74045;BME280;62389;51.412;5.436;2022-12-20T03:23:25;101177.84;;;9.36;85.93
74045;BME280;62389;51.412;5.436;2022-12-20T03:25:50;101177.75;;;9.39;85.57
74045;BME280;62389;51.412;5.436;2022-12-20T03:28:16;101180.16;;;9.45;84.96
74045;BME280;62389;51.412;5.436;2022-12-20T03:30:41;101179.09;;;9.50;84.38
74045;BME280;62389;51.412;5.436;2022-12-20T03:33:07;101179.03;;;9.52;84.91
74045;BME280;62389;51.412;5.436;2022-12-20T03:35:32;101188.56;;;9.54;84.18
74045;BME280;62389;51.412;5.436;2022-12-20T03:37:58;101187.56;;;9.57;84.66
74045;BME280;62389;51.412;5.436;2022-12-20T03:40:23;101190.09;;;9.60;85.17
74045;BME280;62389;51.412;5.436;2022-12-20T03:42:48;101184.81;;;9.62;84.45
74045;BME280;62389;51.412;5.436;2022-12-20T03:45:14;101183.75;;;9.67;83.93
74045;BME280;62389;51.412;5.436;2022-12-20T03:47:39;101181.75;;;9.74;83.85
74045;BME280;62389;51.412;5.436;2022-12-20T03:50:05;101185.88;;;9.81;83.33
74045;BME280;62389;51.412;5.436;2022-12-20T03:52:31;101194.31;;;9.89;83.15
74045;BME280;62389;51.412;5.436;2022-12-20T03:54:56;101184.59;;;9.93;82.78
74045;BME280;62389;51.412;5.436;2022-12-20T03:57:22;101182.63;;;9.99;82.23
74045;BME280;62389;51.412;5.436;2022-12-20T03:59:47;101189.50;;;10.02;82.46
74045;BME280;62389;51.412;5.436;2022-12-20T04:02:13;101185.06;;;10.04;82.47
74045;BME280;62389;51.412;5.436;2022-12-20T04:04:38;101177.22;;;10.04;82.61
74045;BME280;62389;51.412;5.436;2022-12-20T04:07:04;101172.91;;;10.03;82.58
74045;BME280;62389;51.412;5.436;2022-12-20T04:09:29;101177.34;;;10.01;82.32
74045;BME280;62389;51.412;5.436;2022-12-20T04:11:55;101173.06;;;9.98;82.65
74045;BME280;62389;51.412;5.436;2022-12-20T04:14:20;101174.91;;;9.96;82.61
74045;BME280;62389;51.412;5.436;2022-12-20T04:16:45;101173.13;;;9.97;82.63
74045;BME280;62389;51.412;5.436;2022-12-20T04:19:11;101179.22;;;9.97;82.38
74045;BME280;62389;51.412;5.436;2022-12-20T04:21:36;101176.44;;;10.02;82.19
74045;BME280;62389;51.412;5.436;2022-12-20T04:24:02;101164.28;;;10.01;83.15
74045;BME280;62389;51.412;5.436;2022-12-20T04:26:28;101167.75;;;10.01;82.71
74045;BME280;62389;51.412;5.436;2022-12-20T04:28:54;101161.66;;;10.01;82.32
74045;BME280;62389;51.412;5.436;2022-12-20T04:31:20;101163.25;;;10.05;82.60
74045;BME280;62389;51.412;5.436;2022-12-20T04:33:46;101150.97;;;10.07;82.62
74045;BME280;62389;51.412;5.436;2022-12-20T04:36:12;101154.38;;;10.09;82.56
74045;BME280;62389;51.412;5.436;2022-12-20T04:38:38;101147.28;;;10.12;82.01
74045;BME280;62389;51.412;5.436;2022-12-20T04:41:03;101147.25;;;10.14;82.83
74045;BME280;62389;51.412;5.436;2022-12-20T04:43:29;101152.47;;;10.14;82.25
74045;BME280;62389;51.412;5.436;2022-12-20T04:45:55;101154.91;;;10.19;81.93
74045;BME280;62389;51.412;5.436;2022-12-20T04:48:21;101157.34;;;10.23;82.04
74045;BME280;62389;51.412;5.436;2022-12-20T04:50:49;101146.88;;;10.23;82.80
74045;BME280;62389;51.412;5.436;2022-12-20T04:53:15;101151.19;;;10.26;82.41
74045;BME280;62389;51.412;5.436;2022-12-20T04:55:59;101158.03;;;10.30;81.72
74045;BME280;62389;51.412;5.436;2022-12-20T04:58:25;101142.34;;;10.30;82.40
74045;BME280;62389;51.412;5.436;2022-12-20T05:00:50;101140.59;;;10.29;82.40
74045;BME280;62389;51.412;5.436;2022-12-20T05:03:18;101146.75;;;10.28;82.81
74045;BME280;62389;51.412;5.436;2022-12-20T05:05:43;101134.50;;;10.30;82.21
74045;BME280;62389;51.412;5.436;2022-12-20T05:08:08;101131.03;;;10.29;82.47
74045;BME280;62389;51.412;5.436;2022-12-20T05:10:34;101130.16;;;10.29;82.65
74045;BME280;62389;51.412;5.436;2022-12-20T05:12:59;101131.91;;;10.28;82.56
74045;BME280;62389;51.412;5.436;2022-12-20T05:15:24;101125.91;;;10.26;83.13
74045;BME280;62389;51.412;5.436;2022-12-20T05:17:50;101129.50;;;10.22;82.78
74045;BME280;62389;51.412;5.436;2022-12-20T05:20:15;101125.19;;;10.21;83.36
74045;BME280;62389;51.412;5.436;2022-12-20T05:22:40;101113.94;;;10.19;83.09
74045;BME280;62389;51.412;5.436;2022-12-20T05:25:24;101111.44;;;10.16;83.07
74045;BME280;62389;51.412;5.436;2022-12-20T05:28:08;101117.59;;;10.15;83.37
74045;BME280;62389;51.412;5.436;2022-12-20T05:30:33;101108.09;;;10.12;83.78
74045;BME280;62389;51.412;5.436;2022-12-20T05:32:59;101103.00;;;10.09;83.66
74045;BME280;62389;51.412;5.436;2022-12-20T05:35:24;101106.56;;;10.07;83.78
74045;BME280;62389;51.412;5.436;2022-12-20T05:37:49;101099.72;;;10.03;83.42
74045;BME280;62389;51.412;5.436;2022-12-20T05:40:15;101100.66;;;10.02;83.71
74045;BME280;62389;51.412;5.436;2022-12-20T05:42:41;101094.63;;;10.00;83.65
74045;BME280;62389;51.412;5.436;2022-12-20T05:45:07;101099.03;;;9.98;83.80
74045;BME280;62389;51.412;5.436;2022-12-20T05:47:32;101103.44;;;9.97;83.99
74045;BME280;62389;51.412;5.436;2022-12-20T05:50:00;101098.25;;;9.96;83.66
74045;BME280;62389;51.412;5.436;2022-12-20T05:52:26;101093.97;;;9.95;83.47
74045;BME280;62389;51.412;5.436;2022-12-20T05:54:51;101095.75;;;9.93;83.53
74045;BME280;62389;51.412;5.436;2022-12-20T05:57:17;101091.38;;;9.93;83.00
74045;BME280;62389;51.412;5.436;2022-12-20T05:59:43;101082.66;;;9.94;83.02
74045;BME280;62389;51.412;5.436;2022-12-20T06:02:09;101086.22;;;9.92;82.98
74045;BME280;62389;51.412;5.436;2022-12-20T06:04:36;101076.69;;;9.91;82.91
74045;BME280;62389;51.412;5.436;2022-12-20T06:07:02;101074.97;;;9.90;82.88
74045;BME280;62389;51.412;5.436;2022-12-20T06:09:29;101061.91;;;9.90;82.28
74045;BME280;62389;51.412;5.436;2022-12-20T06:11:54;101051.41;;;9.91;82.28
74045;BME280;62389;51.412;5.436;2022-12-20T06:14:20;101045.19;;;9.94;82.28
74045;BME280;62389;51.412;5.436;2022-12-20T06:16:45;101047.03;;;9.92;81.81
74045;BME280;62389;51.412;5.436;2022-12-20T06:19:11;101045.31;;;9.91;82.32
74045;BME280;62389;51.412;5.436;2022-12-20T06:21:36;101050.66;;;9.88;82.07
74045;BME280;62389;51.412;5.436;2022-12-20T06:24:02;101046.34;;;9.86;81.91
74045;BME280;62389;51.412;5.436;2022-12-20T06:26:27;101050.78;;;9.84;81.93
74045;BME280;62389;51.412;5.436;2022-12-20T06:29:00;101047.38;;;9.82;81.93
74045;BME280;62389;51.412;5.436;2022-12-20T06:31:26;101050.03;;;9.81;81.43
74045;BME280;62389;51.412;5.436;2022-12-20T06:33:51;101058.72;;;9.81;81.69
74045;BME280;62389;51.412;5.436;2022-12-20T06:36:17;101057.88;;;9.81;81.33
74045;BME280;62389;51.412;5.436;2022-12-20T06:38:42;101056.97;;;9.82;80.53
74045;BME280;62389;51.412;5.436;2022-12-20T06:41:08;101056.97;;;9.82;80.98
74045;BME280;62389;51.412;5.436;2022-12-20T06:43:33;101044.75;;;9.82;81.05
74045;BME280;62389;51.412;5.436;2022-12-20T06:45:58;101037.81;;;9.81;81.02
74045;BME280;62389;51.412;5.436;2022-12-20T06:48:24;101033.38;;;9.83;81.00
74045;BME280;62389;51.412;5.436;2022-12-20T06:50:49;101028.84;;;9.89;80.79
74045;BME280;62389;51.412;5.436;2022-12-20T06:53:14;101044.47;;;9.90;80.11
74045;BME280;62389;51.412;5.436;2022-12-20T06:55:40;101033.22;;;9.88;80.45
74045;BME280;62389;51.412;5.436;2022-12-20T06:58:05;101049.75;;;9.89;80.89
74045;BME280;62389;51.412;5.436;2022-12-20T07:00:31;101052.34;;;9.89;80.45
74045;BME280;62389;51.412;5.436;2022-12-20T07:02:57;101045.44;;;9.88;80.24
74045;BME280;62389;51.412;5.436;2022-12-20T07:05:22;101049.81;;;9.87;80.21
74045;BME280;62389;51.412;5.436;2022-12-20T07:07:47;101051.50;;;9.88;79.85
74045;BME280;62389;51.412;5.436;2022-12-20T07:10:13;101048.00;;;9.89;80.18
74045;BME280;62389;51.412;5.436;2022-12-20T07:12:38;101051.41;;;9.91;79.34
74045;BME280;62389;51.412;5.436;2022-12-20T07:15:05;101051.34;;;9.93;79.64
74045;BME280;62389;51.412;5.436;2022-12-20T07:17:32;101058.22;;;9.95;79.20
74045;BME280;62389;51.412;5.436;2022-12-20T07:19:57;101059.81;;;9.99;79.33
74045;BME280;62389;51.412;5.436;2022-12-20T07:22:22;101052.81;;;10.00;79.86
74045;BME280;62389;51.412;5.436;2022-12-20T07:24:48;101048.47;;;9.99;79.09
74045;BME280;62389;51.412;5.436;2022-12-20T07:27:14;101046.75;;;9.99;79.05
74045;BME280;62389;51.412;5.436;2022-12-20T07:29:40;101056.28;;;10.00;79.38
74045;BME280;62389;51.412;5.436;2022-12-20T07:32:06;101054.53;;;10.01;78.75
74045;BME280;62389;51.412;5.436;2022-12-20T07:34:32;101059.69;;;10.02;78.35
74045;BME280;62389;51.412;5.436;2022-12-20T07:36:58;101057.00;;;10.04;78.63
74045;BME280;62389;51.412;5.436;2022-12-20T07:39:23;101056.13;;;10.05;78.42
74045;BME280;62389;51.412;5.436;2022-12-20T07:41:53;101077.81;;;10.07;79.05
74045;BME280;62389;51.412;5.436;2022-12-20T07:44:19;101070.75;;;10.09;78.34
74045;BME280;62389;51.412;5.436;2022-12-20T07:46:44;101070.72;;;10.10;78.24
74045;BME280;62389;51.412;5.436;2022-12-20T07:49:09;101065.41;;;10.12;78.28
74045;BME280;62389;51.412;5.436;2022-12-20T07:51:42;101068.78;;;10.16;78.48
74045;BME280;62389;51.412;5.436;2022-12-20T07:54:16;101073.94;;;10.17;78.09
74045;BME280;62389;51.412;5.436;2022-12-20T07:56:47;101077.28;;;10.21;78.25
74045;BME280;62389;51.412;5.436;2022-12-20T07:59:17;101075.44;;;10.24;77.54
74045;BME280;62389;51.412;5.436;2022-12-20T08:01:45;101076.16;;;10.28;77.91
74045;BME280;62389;51.412;5.436;2022-12-20T08:04:14;101078.78;;;10.28;78.19
74045;BME280;62389;51.412;5.436;2022-12-20T08:06:40;101083.16;;;10.27;78.35
74045;BME280;62389;51.412;5.436;2022-12-20T08:09:07;101086.75;;;10.23;78.21
74045;BME280;62389;51.412;5.436;2022-12-20T08:11:35;101082.38;;;10.25;78.76
74045;BME280;62389;51.412;5.436;2022-12-20T08:14:01;101084.16;;;10.23;79.08
74045;BME280;62389;51.412;5.436;2022-12-20T08:16:28;101083.44;;;10.20;79.69
74045;BME280;62389;51.412;5.436;2022-12-20T08:18:55;101083.81;;;10.09;80.48
74045;BME280;62389;51.412;5.436;2022-12-20T08:21:20;101079.06;;;9.97;80.93
74045;BME280;62389;51.412;5.436;2022-12-20T08:23:46;101086.53;;;9.84;82.00
74045;BME280;62389;51.412;5.436;2022-12-20T08:26:11;101079.88;;;9.74;84.00
74045;BME280;62389;51.412;5.436;2022-12-20T08:28:37;101077.56;;;9.66;83.69
74045;BME280;62389;51.412;5.436;2022-12-20T08:31:04;101079.50;;;9.61;83.30
74045;BME280;62389;51.412;5.436;2022-12-20T08:33:31;101078.03;;;9.54;84.06
74045;BME280;62389;51.412;5.436;2022-12-20T08:35:58;101079.81;;;9.52;83.71
74045;BME280;62389;51.412;5.436;2022-12-20T08:38:26;101079.13;;;9.47;84.55
74045;BME280;62389;51.412;5.436;2022-12-20T08:40:51;101083.66;;;9.42;85.70
74045;BME280;62389;51.412;5.436;2022-12-20T08:43:17;101073.31;;;9.39;85.58
74045;BME280;62389;51.412;5.436;2022-12-20T08:45:42;101075.28;;;9.32;87.37
74045;BME280;62389;51.412;5.436;2022-12-20T08:48:07;101069.50;;;9.24;89.54
74045;BME280;62389;51.412;5.436;2022-12-20T08:50:33;101067.09;;;9.18;87.73
74045;BME280;62389;51.412;5.436;2022-12-20T08:52:58;101071.56;;;9.14;88.85
74045;BME280;62389;51.412;5.436;2022-12-20T08:55:23;101062.13;;;9.10;88.42
74045;BME280;62389;51.412;5.436;2022-12-20T08:57:49;101062.34;;;9.04;89.26
74045;BME280;62389;51.412;5.436;2022-12-20T09:00:14;101051.03;;;9.03;89.83
74045;BME280;62389;51.412;5.436;2022-12-20T09:02:40;101057.06;;;9.05;89.53
74045;BME280;62389;51.412;5.436;2022-12-20T09:05:06;101051.78;;;9.07;89.77
74045;BME280;62389;51.412;5.436;2022-12-20T09:07:32;101050.88;;;9.08;89.85
74045;BME280;62389;51.412;5.436;2022-12-20T09:09:57;101053.50;;;9.08;89.59
74045;BME280;62389;51.412;5.436;2022-12-20T09:12:22;101030.81;;;9.10;90.04
74045;BME280;62389;51.412;5.436;2022-12-20T09:14:48;101042.97;;;9.11;91.22
74045;BME280;62389;51.412;5.436;2022-12-20T09:17:13;101052.47;;;9.14;91.00
74045;BME280;62389;51.412;5.436;2022-12-20T09:19:38;101055.84;;;9.16;90.05
74045;BME280;62389;51.412;5.436;2022-12-20T09:22:04;101045.34;;;9.17;90.36
74045;BME280;62389;51.412;5.436;2022-12-20T09:24:29;101040.03;;;9.20;90.55
74045;BME280;62389;51.412;5.436;2022-12-20T09:26:55;101049.34;;;9.27;89.71
74045;BME280;62389;51.412;5.436;2022-12-20T09:29:20;101040.44;;;9.33;89.87
74045;BME280;62389;51.412;5.436;2022-12-20T09:31:48;101049.03;;;9.37;89.25
74045;BME280;62389;51.412;5.436;2022-12-20T09:34:13;101044.59;;;9.39;89.56
74045;BME280;62389;51.412;5.436;2022-12-20T09:36:39;101054.94;;;9.42;89.10
74045;BME280;62389;51.412;5.436;2022-12-20T09:39:04;101037.50;;;9.42;88.65
74045;BME280;62389;51.412;5.436;2022-12-20T09:41:38;101047.09;;;9.42;88.93
74045;BME280;62389;51.412;5.436;2022-12-20T09:46:41;101049.66;;;9.43;88.26
74045;BME280;62389;51.412;5.436;2022-12-20T09:49:13;101057.47;;;9.45;87.40
74045;BME280;62389;51.412;5.436;2022-12-20T09:54:49;101046.19;;;9.43;87.91
74045;BME280;62389;51.412;5.436;2022-12-20T09:57:31;101038.34;;;9.44;88.63
74045;BME280;62389;51.412;5.436;2022-12-20T09:59:58;101039.13;;;9.46;88.26
74045;BME280;62389;51.412;5.436;2022-12-20T10:02:25;101044.25;;;9.49;87.07
74045;BME280;62389;51.412;5.436;2022-12-20T10:04:51;101052.00;;;9.51;87.18
74045;BME280;62389;51.412;5.436;2022-12-20T10:10:34;101030.88;;;9.57;87.65
74045;BME280;62389;51.412;5.436;2022-12-20T10:13:27;101030.50;;;9.68;86.35
74045;BME280;62389;51.412;5.436;2022-12-20T10:24:33;101021.66;;;10.17;84.96
74045;BME280;62389;51.412;5.436;2022-12-20T10:27:11;101036.38;;;10.20;85.46
74045;BME280;62389;51.412;5.436;2022-12-20T10:29:39;101040.97;;;10.13;86.92
74045;BME280;62389;51.412;5.436;2022-12-20T10:32:12;101038.94;;;9.98;88.26
74045;BME280;62389;51.412;5.436;2022-12-20T10:34:38;101036.69;;;9.89;88.59
74045;BME280;62389;51.412;5.436;2022-12-20T10:37:13;101032.53;;;9.83;88.80
74045;BME280;62389;51.412;5.436;2022-12-20T10:39:48;101029.06;;;9.82;88.87
74045;BME280;62389;51.412;5.436;2022-12-20T10:42:26;101032.59;;;9.81;88.60
74045;BME280;62389;51.412;5.436;2022-12-20T10:44:55;101035.22;;;9.81;89.39
74045;BME280;62389;51.412;5.436;2022-12-20T10:47:30;101021.25;;;9.82;89.40
74045;BME280;62389;51.412;5.436;2022-12-20T10:52:42;101015.63;;;9.70;90.83
74045;BME280;62389;51.412;5.436;2022-12-20T10:56:06;101020.22;;;9.63;90.67
74045;BME280;62389;51.412;5.436;2022-12-20T11:01:04;101018.97;;;9.50;91.68
74045;BME280;62389;51.412;5.436;2022-12-20T11:03:29;101015.63;;;9.46;91.74
74045;BME280;62389;51.412;5.436;2022-12-20T11:06:00;101024.41;;;9.44;92.42
74045;BME280;62389;51.412;5.436;2022-12-20T11:08:29;101027.06;;;9.42;92.43
74045;BME280;62389;51.412;5.436;2022-12-20T11:11:23;101021.00;;;9.42;91.81
74045;BME280;62389;51.412;5.436;2022-12-20T11:13:50;101012.22;;;9.44;92.76
74045;BME280;62389;51.412;5.436;2022-12-20T11:16:34;101018.16;;;9.48;92.55
74045;BME280;62389;51.412;5.436;2022-12-20T11:24:12;101005.97;;;9.48;92.45
74045;BME280;62389;51.412;5.436;2022-12-20T11:29:42;101003.50;;;9.44;93.09
74045;BME280;62389;51.412;5.436;2022-12-20T11:32:26;101002.72;;;9.42;93.00
74045;BME280;62389;51.412;5.436;2022-12-20T11:35:00;100992.38;;;9.39;93.52
74045;BME280;62389;51.412;5.436;2022-12-20T11:37:33;101001.03;;;9.41;93.36
74045;BME280;62389;51.412;5.436;2022-12-20T11:48:13;100993.25;;;9.39;93.24
74045;BME280;62389;51.412;5.436;2022-12-20T11:51:00;100986.31;;;9.38;93.62
74045;BME280;62389;51.412;5.436;2022-12-20T11:54:00;100983.72;;;9.38;93.61
74045;BME280;62389;51.412;5.436;2022-12-20T11:56:39;100975.84;;;9.40;93.99
74045;BME280;62389;51.412;5.436;2022-12-20T11:59:19;100981.78;;;9.43;94.16
74045;BME280;62389;51.412;5.436;2022-12-20T12:01:51;100977.41;;;9.44;94.29
74045;BME280;62389;51.412;5.436;2022-12-20T12:04:22;100975.69;;;9.44;94.23
74045;BME280;62389;51.412;5.436;2022-12-20T12:06:58;100976.53;;;9.45;94.12
74045;BME280;62389;51.412;5.436;2022-12-20T12:09:34;100969.53;;;9.45;94.60
74045;BME280;62389;51.412;5.436;2022-12-20T12:12:18;100970.28;;;9.49;94.87
74045;BME280;62389;51.412;5.436;2022-12-20T12:17:57;100971.06;;;9.51;94.65
74045;BME280;62389;51.412;5.436;2022-12-20T12:23:15;100970.28;;;9.49;94.58
74045;BME280;62389;51.412;5.436;2022-12-20T12:25:43;100965.06;;;9.49;94.99
74045;BME280;62389;51.412;5.436;2022-12-20T12:28:11;100957.22;;;9.49;94.95
74045;BME280;62389;51.412;5.436;2022-12-20T12:30:43;100969.41;;;9.48;95.07
74045;BME280;62389;51.412;5.436;2022-12-20T12:33:16;100967.72;;;9.47;95.18
74045;BME280;62389;51.412;5.436;2022-12-20T12:46:48;100956.34;;;9.48;95.11
74045;BME280;62389;51.412;5.436;2022-12-20T12:49:18;100957.34;;;9.46;95.58
74045;BME280;62389;51.412;5.436;2022-12-20T12:51:53;100968.56;;;9.48;95.33
74045;BME280;62389;51.412;5.436;2022-12-20T12:54:26;100964.25;;;9.47;95.48
74045;BME280;62389;51.412;5.436;2022-12-20T12:56:58;100963.47;;;9.45;95.58
74045;BME280;62389;51.412;5.436;2022-12-20T13:10:01;100957.59;;;9.38;96.06
74045;BME280;62389;51.412;5.436;2022-12-20T13:20:24;100951.75;;;9.31;96.23
74045;BME280;62389;51.412;5.436;2022-12-20T13:25:41;100949.25;;;9.28;96.51
74045;BME280;62389;51.412;5.436;2022-12-20T13:33:43;100953.69;;;9.26;96.66
74045;BME280;62389;51.412;5.436;2022-12-20T13:38:55;100949.53;;;9.21;96.57
74045;BME280;62389;51.412;5.436;2022-12-20T13:41:37;100949.53;;;9.21;96.62
74045;BME280;62389;51.412;5.436;2022-12-20T13:46:45;100948.75;;;9.19;96.95
74045;BME280;62389;51.412;5.436;2022-12-20T13:49:18;100947.84;;;9.20;96.89
74045;BME280;62389;51.412;5.436;2022-12-20T13:51:46;100954.78;;;9.21;96.37
74045;BME280;62389;51.412;5.436;2022-12-20T13:54:17;100955.72;;;9.18;96.77
74045;BME280;62389;51.412;5.436;2022-12-20T13:56:46;100962.75;;;9.16;96.67
74045;BME280;62389;51.412;5.436;2022-12-20T13:59:24;100960.16;;;9.16;96.52
74045;BME280;62389;51.412;5.436;2022-12-20T14:01:55;100948.94;;;9.14;97.12
74045;BME280;62389;51.412;5.436;2022-12-20T14:04:27;100953.31;;;9.12;97.06
74045;BME280;62389;51.412;5.436;2022-12-20T14:07:02;100949.94;;;9.10;96.84
74045;BME280;62389;51.412;5.436;2022-12-20T14:09:34;100957.75;;;9.10;97.15
74045;BME280;62389;51.412;5.436;2022-12-20T14:12:04;100951.69;;;9.10;96.68
74045;BME280;62389;51.412;5.436;2022-12-20T14:14:45;100955.19;;;9.08;96.74
74045;BME280;62389;51.412;5.436;2022-12-20T14:22:41;100949.09;;;9.10;96.98
74045;BME280;62389;51.412;5.436;2022-12-20T14:25:14;100949.13;;;9.08;97.12
74045;BME280;62389;51.412;5.436;2022-12-20T14:27:40;100947.50;;;9.05;97.57
74045;BME280;62389;51.412;5.436;2022-12-20T14:30:23;100945.81;;;9.03;97.33
74045;BME280;62389;51.412;5.436;2022-12-20T14:32:49;100945.81;;;9.03;97.30
74045;BME280;62389;51.412;5.436;2022-12-20T14:35:19;100948.44;;;9.03;96.99
74045;BME280;62389;51.412;5.436;2022-12-20T14:37:59;100945.94;;;9.00;97.74
74045;BME280;62389;51.412;5.436;2022-12-20T14:40:25;100939.88;;;8.99;97.17
74045;BME280;62389;51.412;5.436;2022-12-20T14:42:51;100938.16;;;8.98;97.35
74045;BME280;62389;51.412;5.436;2022-12-20T14:45:20;100946.91;;;8.97;97.86
74045;BME280;62389;51.412;5.436;2022-12-20T14:48:01;100938.22;;;8.97;97.28
74045;BME280;62389;51.412;5.436;2022-12-20T14:52:55;100936.63;;;8.93;97.58
74045;BME280;62389;51.412;5.436;2022-12-20T14:55:24;100932.31;;;8.92;97.63